Here is the Quick Look data you requested

The Data originates at the National Weather Service, and is made available here by the UAlbany Department of Atmospheric and Environmental Sciences

Surface Observations

KBKW 251751Z AUTO 25008G15KT 10SM FEW060 24/09 A2988 RMK AO2 SLP093 T02440094
 10244 20167 58015=
KBLF 251752Z AUTO 25013G17KT 10SM CLR 23/08 A2991 RMK AO2 SLP096 T02330078
 10233 20156 57013=
KCKB 251753Z 14003KT 10SM FEW011 SCT060 BKN090 19/14 A2985 RMK AO2 RAB1659E28
 SLP098 P0000 60002 T01890144 10194 20122 58017=
KCRW 251754Z 00000KT 10SM FEW045 SCT070 BKN150 26/13 A2981 RMK AO2 SLP087
 T02560133 10256 20139 58021=
KEKN 251751Z AUTO 01006KT 10SM BKN060 BKN070 22/12 A2986 RMK AO2 SLP108 60000
 T02220122 10233 20128 58013 TSNO=
KHLG 251753Z 17004KT 10SM SCT009 BKN050 BKN090 17/14 A2983 RMK AO2 SLP101 60008
 T01720144 10172 20106 58020=
KHTS 251751Z VRB04KT 10SM FEW048 SCT060 24/14 A2980 RMK AO2 SLP086 T02440139
 10250 20144 58017=
KLWB 251755Z AUTO 24004KT 10SM CLR 23/11 A2989 RMK AO2 T02340110 10234 20126=
KMGW 251753Z 14006KT 10SM FEW033 BKN075 OVC090 18/16 A2985 RMK AO2 RAE03B11E46
 SLP104 P0000 60013 T01780156 10178 20106 58022=
KMRB 251753Z 07003KT 10SM CLR 21/06 A2987 RMK AO2 SLP113 T02060061 10206 20133
 58016=
KPKB 251753Z 00000KT 10SM SCT008 BKN085 19/16 A2987 RMK AO2 RAE13 SLP113 P0000
 60010 T01940156 10194 20117 55010=
KUNI 251755Z AUTO 00000KT 10SM CLR 20/16 A2982 RMK AO2 60006 T02030160 10203
 20115=
KW99 251755Z AUTO 00000KT 10SM SCT090 BKN110 20/09 A2986 RMK AO2 T01980091
 10201 20131=